Time;durP1;ratioP1;P1;durP2;ratioP2;P2;SDS_P1;SDS_P2;PMS_P1;PMS_P2;Temp;Humidity;BMP_temperature;BMP_pressure;BME280_temperature;BME280_humidity;BME280_pressure;Samples;Min_cycle;Max_cycle;Signal;HPM_P1;HPM_P2
2021/09/20 00:02:05;;;;;;;1.00;0.90;;;12.90;99.90;;;;;;4890210;29;20041;-72
2021/09/20 00:04:30;;;;;;;3.30;1.83;;;12.90;99.90;;;;;;4890707;29;20121;-73
2021/09/20 00:06:56;;;;;;;3.08;1.85;;;12.90;99.90;;;;;;4890529;29;20033;-73
2021/09/20 00:09:22;;;;;;;2.70;1.33;;;12.90;99.90;;;;;;4890716;29;20040;-73
2021/09/20 00:11:47;;;;;;;2.67;1.35;;;12.80;99.90;;;;;;4890235;29;20037;-72
2021/09/20 00:14:13;;;;;;;1.73;1.33;;;12.90;99.90;;;;;;4890199;29;20029;-72
2021/09/20 00:16:38;;;;;;;5.47;1.60;;;12.80;99.90;;;;;;4893659;29;20033;-72
2021/09/20 00:19:04;;;;;;;3.90;1.80;;;12.80;99.90;;;;;;4894623;29;20090;-72
2021/09/20 00:21:30;;;;;;;2.65;1.38;;;12.80;99.90;;;;;;4894301;29;20048;-72
2021/09/20 00:23:55;;;;;;;3.85;1.90;;;12.80;99.90;;;;;;4894327;29;20029;-73
2021/09/20 00:26:21;;;;;;;2.97;1.30;;;12.80;99.90;;;;;;4894537;29;20033;-73
2021/09/20 00:28:46;;;;;;;2.60;1.45;;;12.80;99.90;;;;;;4893484;29;20077;-72
2021/09/20 00:31:12;;;;;;;5.75;1.20;;;12.80;99.90;;;;;;4894200;29;20029;-72
2021/09/20 00:33:37;;;;;;;2.25;1.45;;;12.80;99.90;;;;;;4894203;29;20038;-71
2021/09/20 00:36:03;;;;;;;3.35;1.63;;;12.80;99.90;;;;;;4893945;29;20033;-72
2021/09/20 00:38:29;;;;;;;1.45;1.13;;;12.90;99.90;;;;;;4894082;29;20052;-72
2021/09/20 00:40:54;;;;;;;3.38;1.52;;;12.80;99.90;;;;;;4894042;29;20040;-72
2021/09/20 00:43:21;;;;;;;1.48;0.95;;;12.80;99.90;;;;;;4893988;29;20061;-72
2021/09/20 00:45:46;;;;;;;4.18;1.55;;;12.80;99.90;;;;;;4893921;29;20029;-72
2021/09/20 00:48:12;;;;;;;1.80;1.08;;;12.80;99.90;;;;;;4894073;29;20029;-72
2021/09/20 00:50:38;;;;;;;2.83;1.77;;;12.90;99.90;;;;;;4893543;29;20029;-72
2021/09/20 00:53:04;;;;;;;2.83;1.58;;;12.80;99.90;;;;;;4894010;29;20036;-71
2021/09/20 00:55:30;;;;;;;10.23;1.92;;;12.70;99.90;;;;;;4893884;29;20025;-72
2021/09/20 00:57:56;;;;;;;2.08;1.20;;;12.80;99.90;;;;;;4893353;29;20036;-72
2021/09/20 01:00:21;;;;;;;6.75;1.52;;;12.70;99.90;;;;;;4893794;29;20049;-71
2021/09/20 01:02:47;;;;;;;1.98;1.23;;;12.70;99.90;;;;;;4893941;29;20053;-72
2021/09/20 01:05:13;;;;;;;2.10;1.17;;;12.80;99.90;;;;;;4893241;29;20076;-72
2021/09/20 01:07:38;;;;;;;3.25;1.33;;;12.70;99.90;;;;;;4893691;29;20041;-72
2021/09/20 01:10:06;;;;;;;2.92;1.35;;;12.60;99.90;;;;;;4893487;29;20033;-72
2021/09/20 01:12:32;;;;;;;2.58;1.60;;;12.70;99.90;;;;;;4893136;29;20502;-71
2021/09/20 01:14:59;;;;;;;4.05;1.33;;;12.70;99.90;;;;;;4893471;29;20039;-71
2021/09/20 01:17:26;;;;;;;2.80;1.50;;;12.70;99.90;;;;;;4893530;29;20029;-71
2021/09/20 01:19:52;;;;;;;3.42;1.65;;;12.70;99.90;;;;;;4893255;29;20029;-72
2021/09/20 01:22:22;;;;;;;4.78;1.45;;;12.70;99.90;;;;;;4893436;29;20069;-71
2021/09/20 01:24:49;;;;;;;2.38;1.48;;;12.70;99.90;;;;;;4893436;29;20040;-72
2021/09/20 01:27:17;;;;;;;4.93;1.10;;;12.70;99.90;;;;;;4891830;29;20125;-71
2021/09/20 01:29:47;;;;;;;2.72;1.50;;;12.70;99.90;;;;;;4892475;29;20053;-72
2021/09/20 01:32:14;;;;;;;3.05;1.83;;;12.70;99.90;;;;;;4893006;29;20036;-72
2021/09/20 01:34:40;;;;;;;3.33;1.50;;;12.70;99.90;;;;;;4893011;29;20032;-72
2021/09/20 01:37:05;;;;;;;1.30;1.00;;;12.70;99.90;;;;;;4893022;29;20033;-71
2021/09/20 01:39:33;;;;;;;2.58;1.20;;;12.60;99.90;;;;;;4892838;29;20037;-71
2021/09/20 01:41:59;;;;;;;2.83;1.65;;;12.60;99.90;;;;;;4892853;29;20064;-72
2021/09/20 01:44:26;;;;;;;3.13;1.52;;;12.60;99.90;;;;;;4893124;29;20029;-72
2021/09/20 01:46:54;;;;;;;3.20;1.67;;;12.60;99.90;;;;;;4892548;29;20033;-72
2021/09/20 01:49:21;;;;;;;3.13;1.42;;;12.60;99.90;;;;;;4892998;29;20510;-72
2021/09/20 01:51:48;;;;;;;1.48;1.05;;;12.60;99.90;;;;;;4893176;29;20100;-72
2021/09/20 01:54:14;;;;;;;2.75;1.33;;;12.60;99.90;;;;;;4892506;29;20101;-72
2021/09/20 01:56:41;;;;;;;2.42;1.17;;;12.60;99.90;;;;;;4892779;29;20100;-72
2021/09/20 01:59:07;;;;;;;2.50;1.60;;;12.60;99.90;;;;;;4892571;29;20044;-72
2021/09/20 02:01:33;;;;;;;2.90;1.30;;;12.50;99.90;;;;;;4892337;29;20073;-72
2021/09/20 02:03:59;;;;;;;2.50;1.17;;;12.50;99.90;;;;;;4875779;29;20033;-71
2021/09/20 02:06:25;;;;;;;6.53;1.10;;;12.50;99.90;;;;;;4892435;29;20097;-70
2021/09/20 02:08:52;;;;;;;10.48;1.95;;;12.50;99.90;;;;;;4892618;29;20066;-72
2021/09/20 02:11:19;;;;;;;2.00;1.42;;;12.50;99.90;;;;;;4875941;29;20051;-72
2021/09/20 02:13:45;;;;;;;3.13;1.38;;;12.50;99.90;;;;;;4892267;29;20033;-72
2021/09/20 02:16:11;;;;;;;2.63;1.23;;;12.50;99.90;;;;;;4892054;29;20045;-72
2021/09/20 02:18:39;;;;;;;1.70;1.02;;;12.50;99.90;;;;;;4892347;29;20040;-72
2021/09/20 02:21:05;;;;;;;2.85;1.42;;;12.50;99.90;;;;;;4891824;29;20047;-72
2021/09/20 02:23:30;;;;;;;4.40;1.50;;;12.50;99.90;;;;;;4892493;29;20029;-72
2021/09/20 02:25:57;;;;;;;3.10;1.10;;;12.50;99.90;;;;;;4892261;29;20040;-71
2021/09/20 02:28:22;;;;;;;2.47;1.45;;;12.50;99.90;;;;;;4891770;29;20033;-73
2021/09/20 02:30:48;;;;;;;6.53;1.92;;;12.50;99.90;;;;;;4892314;29;20060;-72
2021/09/20 02:33:13;;;;;;;2.92;1.42;;;12.50;99.90;;;;;;4892397;29;20031;-72
2021/09/20 02:35:39;;;;;;;2.83;1.33;;;12.50;99.90;;;;;;4891937;29;20044;-72
2021/09/20 02:38:05;;;;;;;1.88;1.10;;;12.40;99.90;;;;;;4891757;29;20029;-72
2021/09/20 02:40:30;;;;;;;1.30;1.05;;;12.40;99.90;;;;;;4891852;29;20041;-71
2021/09/20 02:42:56;;;;;;;3.03;1.63;;;12.50;99.90;;;;;;4891867;29;20040;-70
2021/09/20 02:45:22;;;;;;;1.35;0.85;;;12.50;99.90;;;;;;4892037;29;20029;-71
2021/09/20 02:47:47;;;;;;;1.67;1.30;;;12.40;99.90;;;;;;4891769;29;20569;-71
2021/09/20 02:50:14;;;;;;;2.72;1.23;;;12.50;99.90;;;;;;4891603;29;20084;-71
2021/09/20 02:52:40;;;;;;;2.67;1.40;;;12.50;99.90;;;;;;4891728;29;20025;-71
2021/09/20 02:55:07;;;;;;;3.65;1.63;;;12.40;99.90;;;;;;4891458;29;20036;-72
2021/09/20 02:57:33;;;;;;;1.90;1.02;;;12.40;99.90;;;;;;4891536;29;20049;-73
2021/09/20 02:59:59;;;;;;;1.95;1.30;;;12.40;99.90;;;;;;4891505;29;20033;-72
2021/09/20 03:02:25;;;;;;;2.08;1.08;;;12.50;99.90;;;;;;4891479;29;20045;-72
2021/09/20 03:04:50;;;;;;;5.05;1.67;;;12.50;99.90;;;;;;4891735;29;20029;-73
2021/09/20 03:07:16;;;;;;;1.58;0.93;;;12.40;99.90;;;;;;4891733;29;20041;-72
2021/09/20 03:09:41;;;;;;;4.72;1.60;;;12.40;99.90;;;;;;4891159;29;20033;-72
2021/09/20 03:12:07;;;;;;;3.08;1.30;;;12.40;99.90;;;;;;4891082;29;20021;-72
2021/09/20 03:14:34;;;;;;;3.10;1.35;;;12.40;99.90;;;;;;4891212;29;20033;-72
2021/09/20 03:16:59;;;;;;;5.00;1.42;;;12.40;99.90;;;;;;4890976;29;20037;-72
2021/09/20 03:19:25;;;;;;;2.40;1.40;;;12.40;99.90;;;;;;4891624;29;20108;-72
2021/09/20 03:21:51;;;;;;;3.88;1.77;;;12.40;99.90;;;;;;4891403;29;20127;-72
2021/09/20 03:24:16;;;;;;;5.25;1.20;;;12.30;99.90;;;;;;4890956;29;20036;-72
2021/09/20 03:26:42;;;;;;;2.35;1.33;;;12.40;99.90;;;;;;4891306;29;20033;-72
2021/09/20 03:29:08;;;;;;;4.35;1.33;;;12.30;99.90;;;;;;4890552;29;20037;-73
2021/09/20 03:31:34;;;;;;;2.05;1.00;;;12.40;99.90;;;;;;4890887;29;20048;-71
2021/09/20 03:33:59;;;;;;;1.63;1.15;;;12.30;99.90;;;;;;4874343;29;20040;-73
2021/09/20 03:36:25;;;;;;;2.85;1.08;;;12.30;99.90;;;;;;4891429;29;20040;-72
2021/09/20 03:38:51;;;;;;;4.95;1.58;;;12.30;99.90;;;;;;4890772;29;20029;-72
2021/09/20 03:41:17;;;;;;;7.63;1.63;;;12.30;99.90;;;;;;4891055;29;20041;-72
2021/09/20 03:43:43;;;;;;;3.42;1.48;;;12.30;99.90;;;;;;4890693;29;20043;-72
2021/09/20 03:46:09;;;;;;;3.20;1.30;;;12.30;99.90;;;;;;4890929;29;20056;-73
2021/09/20 03:48:34;;;;;;;3.33;1.48;;;12.30;99.90;;;;;;4891050;29;20033;-72
2021/09/20 03:51:01;;;;;;;5.72;1.88;;;12.30;99.90;;;;;;4889877;29;20342;-72
2021/09/20 03:53:26;;;;;;;2.90;1.45;;;12.30;99.90;;;;;;4890809;29;20040;-73
2021/09/20 03:55:52;;;;;;;2.10;1.08;;;12.30;99.90;;;;;;4874063;29;20028;-73
2021/09/20 03:58:18;;;;;;;6.53;1.40;;;12.30;99.90;;;;;;4873857;29;20164;-72
2021/09/20 04:00:43;;;;;;;1.67;1.13;;;12.30;99.90;;;;;;4873678;29;20055;-72
2021/09/20 04:03:09;;;;;;;2.92;1.33;;;12.30;99.90;;;;;;4890801;29;20097;-72
2021/09/20 04:05:35;;;;;;;3.72;1.45;;;12.30;99.90;;;;;;4890389;29;20029;-72
2021/09/20 04:08:01;;;;;;;2.47;1.40;;;12.30;99.90;;;;;;4890643;29;20062;-72
2021/09/20 04:10:27;;;;;;;4.30;1.65;;;12.30;99.90;;;;;;4890682;29;20040;-73
2021/09/20 04:12:53;;;;;;;2.38;1.27;;;12.30;99.90;;;;;;4873638;29;20036;-73
2021/09/20 04:15:19;;;;;;;2.58;1.20;;;12.30;99.90;;;;;;4890819;29;20040;-72
2021/09/20 04:17:45;;;;;;;2.78;1.70;;;12.30;99.90;;;;;;4873878;29;20033;-72
2021/09/20 04:20:12;;;;;;;2.88;1.58;;;12.30;99.90;;;;;;4890157;29;20044;-72
2021/09/20 04:22:37;;;;;;;2.65;1.40;;;12.20;99.90;;;;;;4890677;29;20033;-72
2021/09/20 04:25:04;;;;;;;3.45;1.35;;;12.20;99.90;;;;;;4890278;29;20057;-72
2021/09/20 04:27:30;;;;;;;3.05;1.70;;;12.20;99.90;;;;;;4890505;29;20033;-72
2021/09/20 04:29:55;;;;;;;4.10;1.63;;;12.20;99.90;;;;;;4889108;29;20068;-72
2021/09/20 04:32:22;;;;;;;2.00;1.42;;;12.20;99.90;;;;;;4890449;29;20069;-72
2021/09/20 04:34:47;;;;;;;5.95;1.90;;;12.20;99.90;;;;;;4890509;29;20037;-72
2021/09/20 04:37:14;;;;;;;3.85;1.75;;;12.20;99.90;;;;;;4890405;29;20044;-73
2021/09/20 04:39:40;;;;;;;3.15;1.30;;;12.20;99.90;;;;;;4890080;29;20045;-72
2021/09/20 04:42:05;;;;;;;2.85;1.50;;;12.20;99.90;;;;;;4890120;29;20048;-72
2021/09/20 04:44:31;;;;;;;2.58;1.20;;;12.20;99.90;;;;;;4890228;29;20397;-73
2021/09/20 04:46:57;;;;;;;3.38;1.60;;;12.20;99.90;;;;;;4890126;29;20029;-73
2021/09/20 04:49:23;;;;;;;2.97;1.65;;;12.20;99.90;;;;;;4890650;29;20033;-72
2021/09/20 04:51:49;;;;;;;2.55;1.30;;;12.10;99.90;;;;;;4890538;29;20029;-72
2021/09/20 04:54:15;;;;;;;8.85;1.85;;;12.20;99.90;;;;;;4890062;29;20027;-72
2021/09/20 04:56:40;;;;;;;2.33;1.20;;;12.10;99.90;;;;;;4890387;29;20081;-71
2021/09/20 04:59:06;;;;;;;12.93;2.30;;;12.10;99.90;;;;;;4890127;29;20029;-72
2021/09/20 05:01:31;;;;;;;2.53;1.67;;;12.10;99.90;;;;;;4891065;29;20044;-72
2021/09/20 05:03:57;;;;;;;3.65;1.80;;;12.10;99.90;;;;;;4893823;29;20036;-72
2021/09/20 05:06:23;;;;;;;5.72;1.85;;;12.10;99.90;;;;;;4893765;29;20033;-72
2021/09/20 05:08:48;;;;;;;2.67;1.58;;;12.10;99.90;;;;;;4892799;29;20040;-71
2021/09/20 05:11:14;;;;;;;3.47;1.67;;;12.10;99.90;;;;;;4880674;29;20026;-70
2021/09/20 05:13:40;;;;;;;5.05;1.88;;;12.10;99.90;;;;;;4888045;29;20033;-71
2021/09/20 05:16:05;;;;;;;4.50;1.48;;;12.10;99.90;;;;;;4893055;29;20033;-70
2021/09/20 05:18:31;;;;;;;13.90;1.77;;;12.00;99.90;;;;;;4893016;29;20033;-70
2021/09/20 05:20:56;;;;;;;4.03;1.90;;;12.10;99.90;;;;;;4874852;29;20053;-70
2021/09/20 05:23:22;;;;;;;3.05;1.45;;;12.00;99.90;;;;;;4882628;29;20120;-71
2021/09/20 05:25:48;;;;;;;4.35;1.33;;;12.10;99.90;;;;;;4885751;29;20029;-70
2021/09/20 05:28:14;;;;;;;3.50;1.83;;;12.10;99.90;;;;;;4886192;29;20529;-70
2021/09/20 05:30:39;;;;;;;2.45;1.40;;;12.10;99.90;;;;;;4885101;29;20067;-70
2021/09/20 05:33:05;;;;;;;2.80;1.70;;;12.10;99.90;;;;;;4884590;29;20033;-71
2021/09/20 05:35:31;;;;;;;14.00;2.00;;;12.10;99.90;;;;;;4877247;29;20088;-71
2021/09/20 05:37:56;;;;;;;3.55;1.58;;;12.10;99.90;;;;;;4878107;29;20056;-71
2021/09/20 05:40:23;;;;;;;3.90;1.92;;;12.10;99.90;;;;;;4860520;29;20107;-72
2021/09/20 05:42:56;;;;;;;2.10;1.15;;;12.10;99.90;;;;;;4892347;29;20025;-72
2021/09/20 05:45:23;;;;;;;2.65;1.80;;;12.10;99.90;;;;;;4892809;29;20029;-72
2021/09/20 05:47:50;;;;;;;5.18;1.88;;;12.10;99.90;;;;;;4893101;29;20092;-70
2021/09/20 05:50:17;;;;;;;2.60;1.65;;;12.10;99.90;;;;;;4892715;29;20035;-71
2021/09/20 05:52:43;;;;;;;9.10;1.88;;;12.10;99.90;;;;;;4893009;29;20029;-72
2021/09/20 05:55:09;;;;;;;2.10;1.63;;;12.10;99.90;;;;;;4884970;29;20033;-72
2021/09/20 05:57:34;;;;;;;3.85;1.65;;;12.10;99.90;;;;;;4880091;29;20065;-72
2021/09/20 06:00:00;;;;;;;2.30;1.50;;;12.10;99.90;;;;;;4881667;29;20071;-71
2021/09/20 06:02:26;;;;;;;2.30;1.42;;;12.10;99.90;;;;;;4885811;29;20045;-72
2021/09/20 06:04:52;;;;;;;4.80;2.10;;;12.10;99.90;;;;;;4882331;29;20098;-73
2021/09/20 06:07:18;;;;;;;4.88;2.05;;;12.10;99.90;;;;;;4881052;29;20028;-71
2021/09/20 06:09:44;;;;;;;3.60;1.77;;;12.20;99.90;;;;;;4877863;29;20068;-71
2021/09/20 06:12:10;;;;;;;3.45;1.73;;;12.10;99.90;;;;;;4879576;29;20036;-71
2021/09/20 06:14:36;;;;;;;3.17;1.95;;;12.20;99.90;;;;;;4888715;29;20207;-71
2021/09/20 06:17:02;;;;;;;1.83;1.20;;;12.20;99.90;;;;;;4872998;29;20493;-71
2021/09/20 06:19:28;;;;;;;3.65;1.88;;;12.20;99.90;;;;;;4873355;29;20029;-72
2021/09/20 06:21:54;;;;;;;2.70;1.70;;;12.20;99.90;;;;;;4892097;29;20069;-72
2021/09/20 06:24:20;;;;;;;3.47;1.50;;;12.20;99.90;;;;;;4892352;29;20029;-71
2021/09/20 06:26:46;;;;;;;3.15;1.60;;;12.20;99.90;;;;;;4892412;29;20033;-71
2021/09/20 06:29:13;;;;;;;6.85;2.00;;;12.20;99.90;;;;;;4891980;29;20517;-72
2021/09/20 06:31:39;;;;;;;7.03;1.52;;;12.20;99.90;;;;;;4892002;29;20045;-71
2021/09/20 06:34:05;;;;;;;3.50;1.65;;;12.30;99.90;;;;;;4890212;29;20062;-70
2021/09/20 06:36:31;;;;;;;4.38;1.75;;;12.20;99.90;;;;;;4891808;29;20021;-71
2021/09/20 06:38:57;;;;;;;3.20;1.42;;;12.30;99.90;;;;;;4891841;29;20052;-71
2021/09/20 06:41:24;;;;;;;2.63;1.38;;;12.30;99.90;;;;;;4891899;29;20052;-71
2021/09/20 06:43:50;;;;;;;1.85;1.50;;;12.30;99.90;;;;;;4892209;29;20032;-71
2021/09/20 06:46:16;;;;;;;2.22;1.38;;;12.30;99.90;;;;;;4887939;29;20042;-70
2021/09/20 06:48:42;;;;;;;4.40;1.88;;;12.30;99.90;;;;;;4882310;29;20535;-70
2021/09/20 06:51:09;;;;;;;6.10;1.80;;;12.30;99.90;;;;;;4873123;29;20026;-70
2021/09/20 06:53:34;;;;;;;9.00;1.80;;;12.40;99.90;;;;;;4872847;29;20117;-70
2021/09/20 06:56:00;;;;;;;1.80;1.13;;;12.40;99.90;;;;;;4872985;29;20033;-70
2021/09/20 06:58:25;;;;;;;1.83;1.42;;;12.40;99.90;;;;;;4873055;29;20539;-71
2021/09/20 07:00:51;;;;;;;2.13;1.13;;;12.40;99.90;;;;;;4872763;29;20494;-70
2021/09/20 07:03:16;;;;;;;1.10;0.90;;;12.40;99.90;;;;;;4873117;29;20048;-70
2021/09/20 07:05:42;;;;;;;5.35;2.10;;;12.40;99.90;;;;;;4872747;29;20802;-71
2021/09/20 07:08:08;;;;;;;3.05;1.50;;;12.50;99.90;;;;;;4872875;29;20107;-71
2021/09/20 07:10:34;;;;;;;3.50;1.58;;;12.50;99.90;;;;;;4873041;29;20401;-71
2021/09/20 07:13:00;;;;;;;3.33;1.30;;;12.60;99.90;;;;;;4872524;29;20062;-71
2021/09/20 07:15:27;;;;;;;2.13;1.45;;;12.60;99.90;;;;;;4855935;29;20033;-71
2021/09/20 07:17:52;;;;;;;2.65;1.73;;;12.60;99.90;;;;;;4872774;29;20057;-71
2021/09/20 07:20:18;;;;;;;4.40;1.58;;;12.60;99.90;;;;;;4882122;29;20036;-71
2021/09/20 07:22:44;;;;;;;4.35;1.83;;;12.70;99.90;;;;;;4891366;29;20528;-71
2021/09/20 07:25:11;;;;;;;5.10;1.60;;;12.70;99.90;;;;;;4891215;29;20039;-71
2021/09/20 07:27:38;;;;;;;3.03;1.30;;;12.70;99.90;;;;;;4890942;29;20032;-71
2021/09/20 07:30:06;;;;;;;4.72;1.92;;;12.70;99.90;;;;;;4890987;29;20131;-71
2021/09/20 07:32:33;;;;;;;7.25;1.88;;;12.80;99.90;;;;;;4891011;29;20045;-72
2021/09/20 07:34:59;;;;;;;2.63;1.67;;;12.80;99.90;;;;;;4890649;29;20025;-70
2021/09/20 07:37:25;;;;;;;3.42;1.70;;;12.80;99.90;;;;;;4891028;29;20025;-72
2021/09/20 07:39:51;;;;;;;2.38;1.38;;;13.00;99.90;;;;;;4874224;29;20077;-71
2021/09/20 07:42:17;;;;;;;3.10;1.55;;;12.90;99.90;;;;;;4890808;29;20055;-72
2021/09/20 07:44:42;;;;;;;8.15;2.28;;;12.90;99.90;;;;;;4890940;29;20062;-71
2021/09/20 07:47:08;;;;;;;4.65;1.73;;;12.90;99.90;;;;;;4882785;29;20068;-72
2021/09/20 07:49:34;;;;;;;4.22;1.40;;;13.00;99.90;;;;;;4879005;29;20040;-70
2021/09/20 07:52:00;;;;;;;2.90;1.58;;;13.00;99.90;;;;;;4871180;29;20036;-71
2021/09/20 07:54:25;;;;;;;4.88;1.55;;;12.90;99.90;;;;;;4874264;29;20034;-71
2021/09/20 07:56:52;;;;;;;5.05;1.90;;;13.00;99.90;;;;;;4877095;29;20066;-72
2021/09/20 07:59:18;;;;;;;1.55;1.10;;;13.00;99.90;;;;;;4877460;29;20041;-71
2021/09/20 08:01:43;;;;;;;2.67;1.27;;;12.90;99.90;;;;;;4880901;29;20466;-71
2021/09/20 08:04:09;;;;;;;7.40;2.03;;;13.00;99.90;;;;;;4876540;29;20029;-71
2021/09/20 08:06:35;;;;;;;7.20;1.63;;;13.10;99.90;;;;;;4888590;29;20077;-71
2021/09/20 08:09:01;;;;;;;3.13;1.58;;;13.20;99.90;;;;;;4888457;29;20060;-71
2021/09/20 08:11:28;;;;;;;2.80;1.42;;;13.20;99.90;;;;;;4879779;29;20057;-72
2021/09/20 08:13:55;;;;;;;3.65;1.70;;;13.10;99.90;;;;;;4889991;29;20032;-71
2021/09/20 08:16:25;;;;;;;4.25;1.30;;;13.20;99.90;;;;;;4889888;29;20537;-72
2021/09/20 08:18:51;;;;;;;4.13;1.80;;;13.20;99.90;;;;;;4889532;29;20122;-71
2021/09/20 08:21:16;;;;;;;3.33;1.65;;;13.20;99.90;;;;;;4888706;29;20068;-71
2021/09/20 08:23:42;;;;;;;2.88;1.75;;;13.30;99.90;;;;;;4873386;29;20085;-71
2021/09/20 08:26:08;;;;;;;3.10;1.42;;;13.30;99.90;;;;;;4883017;29;20039;-71
2021/09/20 08:28:34;;;;;;;8.25;1.90;;;13.40;99.90;;;;;;4881014;29;20057;-72
2021/09/20 08:31:00;;;;;;;4.05;1.90;;;13.40;99.90;;;;;;4882540;29;20061;-71
2021/09/20 08:33:26;;;;;;;4.72;1.75;;;13.40;99.90;;;;;;4890692;29;20048;-72
2021/09/20 08:35:52;;;;;;;3.05;1.30;;;13.50;99.90;;;;;;4890368;29;20029;-71
2021/09/20 08:38:18;;;;;;;3.40;1.80;;;13.60;99.90;;;;;;4894231;29;20028;-71
2021/09/20 08:40:44;;;;;;;3.10;1.85;;;13.60;99.90;;;;;;4894275;29;20049;-71
2021/09/20 08:43:09;;;;;;;10.05;1.98;;;13.70;99.90;;;;;;4894020;29;20025;-71
2021/09/20 08:45:35;;;;;;;7.85;1.60;;;13.80;99.90;;;;;;4880953;29;20044;-71
2021/09/20 08:48:01;;;;;;;3.13;1.70;;;13.90;99.90;;;;;;4875581;29;20037;-71
2021/09/20 08:50:30;;;;;;;5.03;1.25;;;14.00;99.90;;;;;;4875034;29;20030;-72
2021/09/20 08:52:57;;;;;;;2.42;1.30;;;14.00;99.90;;;;;;4875407;29;20029;-72
2021/09/20 08:55:24;;;;;;;9.02;1.00;;;14.10;99.90;;;;;;4875509;29;20089;-72
2021/09/20 08:57:50;;;;;;;6.80;1.40;;;14.20;99.90;;;;;;4876624;29;20037;-71
2021/09/20 09:00:17;;;;;;;4.07;1.67;;;14.30;99.90;;;;;;4893884;29;20060;-72
2021/09/20 09:02:43;;;;;;;5.15;2.30;;;14.40;99.90;;;;;;4893691;29;20035;-72
2021/09/20 09:05:18;;;;;;;4.22;1.13;;;14.50;99.90;;;;;;4893538;29;20088;-71
2021/09/20 09:07:54;;;;;;;1.80;1.38;;;14.70;99.90;;;;;;4891005;29;20042;-72
2021/09/20 09:10:24;;;;;;;3.60;1.33;;;14.70;99.90;;;;;;4884273;29;20025;-71
2021/09/20 09:12:51;;;;;;;1.60;1.00;;;14.80;99.90;;;;;;4889756;29;20093;-72
2021/09/20 09:15:19;;;;;;;2.40;1.13;;;14.90;99.90;;;;;;4885292;29;20470;-72
2021/09/20 09:17:56;;;;;;;3.88;1.55;;;15.00;99.90;;;;;;4873235;29;20034;-71
2021/09/20 09:20:28;;;;;;;1.95;0.90;;;15.10;99.90;;;;;;4882828;29;20033;-71
2021/09/20 09:23:03;;;;;;;2.00;1.10;;;15.10;99.90;;;;;;4882915;29;20124;-72
2021/09/20 09:25:40;;;;;;;2.15;1.13;;;15.10;99.90;;;;;;4893055;29;20033;-72
2021/09/20 09:28:17;;;;;;;7.50;1.17;;;15.20;99.90;;;;;;4884743;29;20029;-72
2021/09/20 09:30:56;;;;;;;7.55;1.50;;;15.30;99.90;;;;;;4881717;29;20144;-72
2021/09/20 09:33:46;;;;;;;4.93;1.63;;;15.40;99.90;;;;;;4892744;29;20033;-72
2021/09/20 09:36:14;;;;;;;2.05;1.10;;;15.50;99.90;;;;;;4892805;29;20036;-71
2021/09/20 09:39:29;;;;;;;1.65;0.90;;;15.60;99.90;;;;;;4892463;29;20107;-72
2021/09/20 09:41:57;;;;;;;2.37;1.30;;;15.80;99.90;;;;;;4798661;30;20072;-72
2021/09/20 09:44:31;;;;;;;2.50;1.25;;;16.00;99.90;;;;;;4882901;29;20041;-72
2021/09/20 09:46:58;;;;;;;2.05;1.05;;;16.10;99.90;;;;;;4892265;29;20036;-72
2021/09/20 09:49:25;;;;;;;3.45;0.60;;;16.10;99.90;;;;;;4891924;29;20121;-73
2021/09/20 09:52:10;;;;;;;1.40;0.80;;;16.30;99.90;;;;;;4876247;29;20021;-72
2021/09/20 09:54:42;;;;;;;1.77;1.00;;;16.40;99.90;;;;;;4892798;29;20033;-72
2021/09/20 09:57:23;;;;;;;2.30;0.90;;;16.70;99.90;;;;;;4892549;29;20026;-72
2021/09/20 09:59:56;;;;;;;1.33;0.70;;;16.70;99.90;;;;;;4892734;29;20029;-72
2021/09/20 10:02:26;;;;;;;1.33;0.80;;;16.50;99.90;;;;;;4892851;29;20119;-73
2021/09/20 10:04:59;;;;;;;1.85;1.08;;;16.30;99.90;;;;;;4875708;29;20393;-72
2021/09/20 10:07:47;;;;;;;2.50;1.15;;;16.20;99.90;;;;;;4892607;29;20180;-72
2021/09/20 10:10:24;;;;;;;2.10;1.13;;;16.20;99.90;;;;;;4892686;29;20029;-72
2021/09/20 10:12:53;;;;;;;3.75;1.00;;;16.10;99.90;;;;;;4892870;29;20033;-73
2021/09/20 10:15:25;;;;;;;1.48;0.85;;;16.10;99.90;;;;;;4892111;29;20415;-72
2021/09/20 10:17:52;;;;;;;4.93;1.33;;;16.10;99.90;;;;;;4892841;29;20047;-73
2021/09/20 10:20:21;;;;;;;6.43;1.15;;;16.00;99.90;;;;;;4892553;29;20040;-72
2021/09/20 10:22:47;;;;;;;2.65;1.00;;;16.10;99.90;;;;;;4889828;29;20029;-71
2021/09/20 10:25:16;;;;;;;1.10;0.75;;;16.10;99.90;;;;;;4874802;29;20033;-72
2021/09/20 10:27:42;;;;;;;5.20;1.30;;;15.90;99.90;;;;;;4888476;29;20044;-71
2021/09/20 10:30:18;;;;;;;1.20;0.77;;;16.00;99.90;;;;;;4889956;29;20080;-72
2021/09/20 10:32:58;;;;;;;2.55;1.35;;;15.90;99.90;;;;;;4879806;29;20033;-71
2021/09/20 10:35:42;;;;;;;5.25;0.85;;;15.90;99.90;;;;;;4886320;29;20394;-72
2021/09/20 10:38:29;;;;;;;1.80;1.13;;;15.80;99.90;;;;;;4882099;29;20121;-71
2021/09/20 10:41:13;;;;;;;1.10;0.75;;;15.80;99.90;;;;;;4891271;29;20041;-72
2021/09/20 10:43:41;;;;;;;2.78;0.80;;;15.90;99.90;;;;;;4890397;29;20045;-71
2021/09/20 10:46:32;;;;;;;2.75;1.02;;;16.00;99.90;;;;;;4890064;29;20033;-72
2021/09/20 10:49:01;;;;;;;2.70;0.90;;;16.10;99.90;;;;;;4877954;29;20025;-72
2021/09/20 10:51:40;;;;;;;3.63;1.00;;;16.10;99.90;;;;;;4876507;29;20033;-75
2021/09/20 10:54:25;;;;;;;1.42;0.88;;;16.10;99.90;;;;;;4879993;29;20041;-72
2021/09/20 10:57:10;;;;;;;1.77;0.90;;;16.10;99.90;;;;;;4873347;29;20688;-72
2021/09/20 10:59:36;;;;;;;1.75;0.77;;;16.10;99.90;;;;;;4871988;29;20038;-71
2021/09/20 11:02:05;;;;;;;0.98;0.63;;;16.10;99.90;;;;;;4881845;29;20041;-72
2021/09/20 11:04:34;;;;;;;1.23;0.80;;;16.20;99.90;;;;;;4871192;29;20041;-72
2021/09/20 11:07:12;;;;;;;3.28;0.98;;;16.20;99.90;;;;;;4872069;29;20033;-72
2021/09/20 11:09:39;;;;;;;2.25;1.10;;;16.20;99.90;;;;;;4880270;29;20046;-72
2021/09/20 11:12:13;;;;;;;3.35;0.95;;;16.30;99.90;;;;;;4878076;29;20115;-72
2021/09/20 11:15:02;;;;;;;4.13;1.20;;;16.30;99.90;;;;;;4877578;29;20053;-72
2021/09/20 11:17:33;;;;;;;3.35;1.42;;;16.30;99.90;;;;;;4876964;29;20553;-72
2021/09/20 11:20:14;;;;;;;1.30;0.98;;;16.30;99.90;;;;;;4886486;29;20073;-72
2021/09/20 11:22:40;;;;;;;1.77;0.98;;;16.40;99.90;;;;;;4881145;29;20561;-72
2021/09/20 11:25:13;;;;;;;1.27;0.73;;;16.40;99.90;;;;;;4889482;29;20044;-72
2021/09/20 11:27:49;;;;;;;1.70;0.85;;;16.40;99.90;;;;;;4885997;29;20425;-73
2021/09/20 11:30:18;;;;;;;3.05;1.17;;;16.60;99.90;;;;;;4875100;29;20061;-71
2021/09/20 11:33:08;;;;;;;2.13;0.80;;;16.50;99.90;;;;;;4880722;29;20037;-72
2021/09/20 11:35:37;;;;;;;7.65;0.95;;;16.60;99.90;;;;;;4881281;29;20057;-72
2021/09/20 11:38:11;;;;;;;3.47;0.73;;;16.70;99.90;;;;;;4881415;29;20037;-74
2021/09/20 11:40:37;;;;;;;1.38;0.75;;;16.90;99.90;;;;;;4871258;29;20029;-73
2021/09/20 11:43:12;;;;;;;4.65;1.15;;;16.80;99.90;;;;;;4874203;29;20481;-72
2021/09/20 11:45:38;;;;;;;1.23;0.80;;;17.00;99.90;;;;;;4888094;29;20037;-73
2021/09/20 11:48:07;;;;;;;1.83;0.93;;;17.20;99.90;;;;;;4875287;29;20041;-73
2021/09/20 11:50:37;;;;;;;1.02;0.77;;;17.30;99.90;;;;;;4889988;29;20084;-72
2021/09/20 11:53:10;;;;;;;0.98;0.60;;;17.50;99.90;;;;;;4869904;29;20036;-71
2021/09/20 11:55:38;;;;;;;2.22;0.77;;;17.40;99.90;;;;;;4879617;29;20033;-71
2021/09/20 11:58:06;;;;;;;1.27;1.00;;;17.50;99.90;;;;;;4878873;29;20048;-72
2021/09/20 12:00:34;;;;;;;1.70;0.77;;;17.80;99.90;;;;;;4887233;29;20033;-72
2021/09/20 12:03:02;;;;;;;2.25;1.02;;;18.30;99.90;;;;;;4879294;29;20041;-73
2021/09/20 12:05:34;;;;;;;2.17;0.95;;;18.90;99.90;;;;;;4862588;29;20041;-72
2021/09/20 12:08:08;;;;;;;2.45;0.80;;;19.20;99.90;;;;;;4876247;29;20029;-72
2021/09/20 12:10:35;;;;;;;2.97;0.93;;;19.20;99.90;;;;;;4879366;29;20036;-71
2021/09/20 12:13:05;;;;;;;1.75;1.02;;;19.10;99.90;;;;;;4883193;29;20037;-70
2021/09/20 12:15:33;;;;;;;4.60;1.15;;;18.90;99.90;;;;;;4883225;29;20038;-71
2021/09/20 12:18:13;;;;;;;1.88;1.05;;;18.80;99.90;;;;;;4877796;29;20037;-72
2021/09/20 12:20:48;;;;;;;1.83;0.55;;;18.50;99.90;;;;;;4879110;29;20097;-71
2021/09/20 12:23:29;;;;;;;1.77;0.98;;;18.20;99.90;;;;;;4882091;29;20025;-70
2021/09/20 12:26:00;;;;;;;2.42;0.95;;;18.00;99.90;;;;;;4871540;29;20104;-70
2021/09/20 12:28:48;;;;;;;1.15;0.52;;;17.70;99.90;;;;;;4876554;29;20046;-71
2021/09/20 12:31:16;;;;;;;6.90;1.30;;;17.50;99.90;;;;;;4877619;29;20077;-70
2021/09/20 12:33:54;;;;;;;0.93;0.63;;;17.30;99.90;;;;;;4870523;29;20034;-71
2021/09/20 12:36:42;;;;;;;3.05;1.15;;;17.10;99.90;;;;;;4876787;29;20070;-71
2021/09/20 12:39:19;;;;;;;3.88;0.90;;;16.90;99.90;;;;;;4882658;29;20033;-71
2021/09/20 12:41:46;;;;;;;2.50;1.05;;;16.70;99.90;;;;;;4863978;29;20558;-71
2021/09/20 12:44:14;;;;;;;5.25;1.20;;;16.60;99.90;;;;;;4875068;29;20089;-70
2021/09/20 12:46:41;;;;;;;1.83;0.90;;;16.40;99.90;;;;;;4882780;29;20590;-70
2021/09/20 12:49:09;;;;;;;2.83;1.20;;;16.30;99.90;;;;;;4879775;29;20037;-70
2021/09/20 12:51:41;;;;;;;2.45;1.30;;;16.20;99.90;;;;;;4880739;29;20026;-71